createdAt,value
2019-04-07T00:01:20.703Z,27.10
2019-04-07T00:03:49.535Z,26.73
2019-04-07T00:06:18.335Z,26.17
2019-04-07T00:08:46.946Z,26.90
2019-04-07T00:11:15.551Z,26.23
2019-04-07T00:13:44.760Z,25.37
2019-04-07T00:16:13.535Z,24.25
2019-04-07T00:18:42.107Z,25.65
2019-04-07T00:21:11.248Z,24.00
2019-04-07T00:23:40.058Z,24.52
2019-04-07T00:26:08.834Z,21.02
2019-04-07T00:28:40.142Z,20.57
2019-04-07T00:31:10.274Z,21.62
2019-04-07T00:33:40.494Z,19.02
2019-04-07T00:36:09.575Z,18.42
2019-04-07T00:38:38.480Z,19.20
2019-04-07T00:41:07.962Z,18.48
2019-04-07T00:43:36.440Z,18.37
2019-04-07T00:46:05.637Z,16.65
2019-04-07T00:48:34.964Z,17.07
2019-04-07T00:51:04.497Z,17.82
2019-04-07T00:53:34.306Z,15.58
2019-04-07T00:56:03.226Z,14.58
2019-04-07T00:58:32.439Z,15.45
2019-04-07T01:01:01.046Z,15.20
2019-04-07T01:03:30.202Z,16.55
2019-04-07T01:05:58.853Z,15.40
2019-04-07T01:08:27.402Z,17.50
2019-04-07T01:10:56.010Z,17.85
2019-04-07T01:13:24.754Z,17.60
2019-04-07T01:15:53.857Z,16.10
2019-04-07T01:18:23.138Z,16.67
2019-04-07T01:20:51.967Z,16.52
2019-04-07T01:23:20.949Z,18.85
2019-04-07T01:25:50.083Z,19.55
2019-04-07T01:28:18.756Z,19.40
2019-04-07T01:30:47.251Z,18.70
2019-04-07T01:33:16.392Z,19.10
2019-04-07T01:35:48.692Z,20.20
2019-04-07T01:38:15.375Z,18.73
2019-04-07T01:40:45.652Z,20.10
2019-04-07T01:43:16.262Z,20.90
2019-04-07T01:46:02.190Z,19.02
2019-04-07T01:48:35.694Z,20.65
2019-04-07T01:51:11.881Z,18.07
2019-04-07T01:53:45.436Z,18.35
2019-04-07T01:56:17.453Z,18.52
2019-04-07T01:59:03.776Z,17.25
2019-04-07T02:01:55.232Z,17.40
2019-04-07T02:04:34.651Z,17.17
2019-04-07T02:07:10.761Z,17.27
2019-04-07T02:09:41.113Z,17.15
2019-04-07T02:12:15.038Z,17.50
2019-04-07T02:14:57.516Z,16.85
2019-04-07T02:17:45.986Z,16.15
2019-04-07T02:21:00.850Z,16.50
2019-04-07T02:23:45.971Z,15.40
2019-04-07T02:26:27.881Z,13.93
2019-04-07T02:28:58.430Z,12.73
2019-04-07T02:31:34.560Z,13.58
2019-04-07T02:34:13.909Z,12.70
2019-04-07T02:36:50.019Z,13.18
2019-04-07T02:39:23.158Z,11.48
2019-04-07T02:41:53.647Z,12.13
2019-04-07T02:44:31.506Z,12.68
2019-04-07T02:47:08.609Z,12.25
2019-04-07T02:49:48.672Z,12.33
2019-04-07T02:52:28.069Z,12.98
2019-04-07T02:55:14.960Z,13.22
2019-04-07T02:57:45.163Z,12.30
2019-04-07T03:00:20.489Z,12.10
2019-04-07T03:02:51.908Z,12.10
2019-04-07T03:05:29.770Z,13.35
2019-04-07T03:08:15.583Z,12.58
2019-04-07T03:10:49.102Z,11.83
2019-04-07T03:13:19.365Z,12.20
2019-04-07T03:15:49.651Z,13.08
2019-04-07T03:18:26.257Z,13.78
2019-04-07T03:21:03.629Z,14.05
2019-04-07T03:23:36.634Z,15.43
2019-04-07T03:26:11.042Z,15.20
2019-04-07T03:28:56.256Z,14.10
2019-04-07T03:31:38.994Z,15.32
2019-04-07T03:34:30.622Z,13.75
2019-04-07T03:37:30.327Z,13.78
2019-04-07T03:39:59.220Z,13.53
2019-04-07T03:42:32.776Z,13.68
2019-04-07T03:45:06.086Z,14.20
2019-04-07T03:47:39.588Z,13.70
2019-04-07T03:50:22.821Z,14.23
2019-04-07T03:52:56.489Z,13.53
2019-04-07T03:55:28.146Z,14.40
2019-04-07T03:58:10.626Z,14.78
2019-04-07T04:00:59.038Z,15.05
2019-04-07T04:03:40.837Z,15.80
2019-04-07T04:06:23.087Z,13.78
2019-04-07T04:08:56.251Z,14.98
2019-04-07T04:11:30.486Z,14.68
2019-04-07T04:14:04.578Z,14.75
2019-04-07T04:16:34.860Z,13.38
2019-04-07T04:19:05.003Z,16.70
2019-04-07T04:21:33.700Z,15.83
2019-04-07T04:24:02.343Z,15.18
2019-04-07T04:26:30.888Z,14.28
2019-04-07T04:28:59.816Z,14.15
2019-04-07T04:31:29.380Z,14.18
2019-04-07T04:33:58.234Z,15.10
2019-04-07T04:36:27.286Z,14.53
2019-04-07T04:38:56.141Z,14.95
2019-04-07T04:41:25.228Z,16.42
2019-04-07T04:43:54.729Z,14.40
2019-04-07T04:46:23.960Z,15.78
2019-04-07T04:48:52.663Z,15.85
2019-04-07T04:51:21.213Z,17.35
2019-04-07T04:53:50.405Z,17.45
2019-04-07T04:56:19.927Z,18.67
2019-04-07T04:58:48.555Z,18.90
2019-04-07T05:01:17.545Z,20.32
2019-04-07T05:03:46.279Z,17.27
2019-04-07T05:06:14.893Z,14.63
2019-04-07T05:08:43.432Z,15.08
2019-04-07T05:11:12.416Z,14.60
2019-04-07T05:13:43.352Z,12.03
2019-04-07T05:16:11.973Z,12.88
2019-04-07T05:18:40.624Z,13.75
2019-04-07T05:21:09.676Z,11.45
2019-04-07T05:23:38.698Z,11.15
2019-04-07T05:26:07.869Z,11.48
2019-04-07T05:28:37.962Z,11.30
2019-04-07T05:31:07.327Z,11.97
2019-04-07T05:33:36.679Z,11.33
2019-04-07T05:36:05.923Z,10.88
2019-04-07T05:38:34.625Z,12.88
2019-04-07T05:41:03.170Z,10.43
2019-04-07T05:43:31.703Z,12.28
2019-04-07T05:46:00.834Z,10.70
2019-04-07T05:48:29.555Z,11.88
2019-04-07T05:50:59.955Z,11.38
2019-04-07T05:53:28.654Z,11.18
2019-04-07T05:55:57.982Z,11.80
2019-04-07T05:58:26.891Z,11.30
2019-04-07T06:00:55.526Z,10.70
2019-04-07T06:03:24.419Z,10.85
2019-04-07T06:05:53.016Z,10.15
2019-04-07T06:08:29.333Z,11.10
2019-04-07T06:10:54.273Z,11.50
2019-04-07T06:13:22.471Z,9.80
2019-04-07T06:15:52.274Z,10.05
2019-04-07T06:18:21.630Z,10.45
2019-04-07T06:20:50.514Z,10.13
2019-04-07T06:23:22.114Z,10.23
2019-04-07T06:25:50.116Z,9.85
2019-04-07T06:28:19.271Z,10.43
2019-04-07T06:30:48.383Z,10.40
2019-04-07T06:33:17.494Z,9.33
2019-04-07T06:35:47.417Z,9.98
2019-04-07T06:38:16.719Z,9.53
2019-04-07T06:40:46.028Z,8.75
2019-04-07T06:43:14.644Z,8.23
2019-04-07T06:46:00.723Z,8.00
2019-04-07T06:48:30.493Z,8.40
2019-04-07T06:51:04.913Z,8.45
2019-04-07T06:53:38.421Z,7.97
2019-04-07T06:56:14.312Z,8.05
2019-04-07T06:58:50.457Z,8.63
2019-04-07T07:01:29.750Z,8.88
2019-04-07T07:04:13.157Z,7.85
2019-04-07T07:06:46.074Z,8.70
2019-04-07T07:09:19.123Z,8.63
2019-04-07T07:12:06.329Z,8.58
2019-04-07T07:14:43.333Z,8.58
2019-04-07T07:17:24.780Z,8.45
2019-04-07T07:20:06.938Z,9.48
2019-04-07T07:22:41.529Z,9.75
2019-04-07T07:25:12.404Z,9.63
2019-04-07T07:27:42.982Z,9.25
2019-04-07T07:30:12.100Z,9.05
2019-04-07T07:32:40.988Z,9.40
2019-04-07T07:35:13.586Z,8.65
2019-04-07T07:37:40.551Z,7.75
2019-04-07T07:40:10.032Z,7.65
2019-04-07T07:42:38.946Z,8.08
2019-04-07T07:45:11.854Z,7.87
2019-04-07T07:47:39.535Z,10.28
2019-04-07T07:50:08.959Z,10.15
2019-04-07T07:52:37.752Z,8.28
2019-04-07T07:55:10.937Z,8.45
2019-04-07T07:57:38.234Z,8.85
2019-04-07T08:00:08.430Z,8.78
2019-04-07T08:02:37.260Z,7.50
2019-04-07T08:05:08.054Z,8.13
2019-04-07T08:07:36.783Z,9.15
2019-04-07T08:10:09.513Z,7.67
2019-04-07T08:12:38.928Z,9.00
2019-04-07T08:15:08.185Z,7.83
2019-04-07T08:17:36.789Z,7.40
2019-04-07T08:20:07.851Z,7.80
2019-04-07T08:22:42.202Z,8.25
2019-04-07T08:25:07.534Z,7.50
2019-04-07T08:27:36.158Z,6.78
2019-04-07T08:30:11.819Z,5.97
2019-04-07T08:32:38.833Z,7.92
2019-04-07T08:35:08.031Z,7.78
2019-04-07T08:37:36.602Z,7.17
2019-04-07T08:40:07.834Z,8.03
2019-04-07T08:42:36.998Z,6.90
2019-04-07T08:45:08.154Z,7.58
2019-04-07T08:47:38.088Z,7.40
2019-04-07T08:50:08.808Z,7.33
2019-04-07T08:52:40.729Z,7.28
2019-04-07T08:55:07.739Z,6.70
2019-04-07T08:57:37.024Z,7.62
2019-04-07T09:00:14.961Z,6.90
2019-04-07T09:02:42.682Z,6.45
2019-04-07T09:05:12.980Z,7.30
2019-04-07T09:07:42.216Z,7.78
2019-04-07T09:10:17.045Z,8.05
2019-04-07T09:12:44.022Z,7.28
2019-04-07T09:15:14.493Z,6.62
2019-04-07T09:17:50.558Z,6.75
2019-04-07T09:20:32.827Z,7.28
2019-04-07T09:23:03.035Z,6.85
2019-04-07T09:25:33.514Z,6.65
2019-04-07T09:28:10.091Z,6.25
2019-04-07T09:30:40.972Z,6.10
2019-04-07T09:33:14.840Z,6.25
2019-04-07T09:35:45.377Z,6.97
2019-04-07T09:38:21.727Z,6.80
2019-04-07T09:40:55.965Z,6.92
2019-04-07T09:43:42.786Z,6.50
2019-04-07T09:46:22.954Z,6.55
2019-04-07T09:48:53.358Z,6.97
2019-04-07T09:51:24.303Z,7.10
2019-04-07T09:54:02.954Z,8.13
2019-04-07T09:56:33.743Z,8.65
2019-04-07T09:59:04.269Z,8.18
2019-04-07T10:01:35.282Z,9.28
2019-04-07T10:04:14.626Z,8.03
2019-04-07T10:06:44.872Z,7.80
2019-04-07T10:09:18.438Z,8.45
2019-04-07T10:11:49.540Z,7.95
2019-04-07T10:14:21.765Z,8.00
2019-04-07T10:16:55.162Z,8.08
2019-04-07T10:19:31.668Z,8.73
2019-04-07T10:22:04.823Z,8.35
2019-04-07T10:24:53.666Z,8.18
2019-04-07T10:30:14.619Z,8.23
2019-04-07T10:33:00.267Z,7.67
2019-04-07T10:35:46.858Z,8.53
2019-04-07T10:38:31.784Z,8.20
2019-04-07T10:41:02.103Z,7.25
2019-04-07T10:43:45.255Z,8.23
2019-04-07T10:46:32.531Z,8.23
2019-04-07T10:49:15.701Z,7.92
2019-04-07T10:51:48.925Z,7.83
2019-04-07T10:54:25.249Z,8.63
2019-04-07T10:56:58.126Z,9.33
2019-04-07T10:59:29.083Z,10.63
2019-04-07T11:02:00.232Z,8.68
2019-04-07T11:04:30.677Z,8.10
2019-04-07T11:07:18.782Z,9.20
2019-04-07T11:09:59.005Z,7.47
2019-04-07T11:12:40.134Z,8.53
2019-04-07T11:15:28.559Z,8.80
2019-04-07T11:18:07.775Z,8.03
2019-04-07T11:20:54.675Z,8.73
2019-04-07T11:23:41.429Z,7.97
2019-04-07T11:26:18.025Z,8.15
2019-04-07T11:28:51.358Z,9.00
2019-04-07T11:31:21.909Z,8.35
2019-04-07T11:33:55.508Z,7.97
2019-04-07T11:36:35.297Z,8.25
2019-04-07T11:39:19.938Z,9.10
2019-04-07T11:41:53.374Z,9.55
2019-04-07T11:44:41.082Z,9.40
2019-04-07T11:47:20.825Z,8.43
2019-04-07T11:49:54.029Z,8.35
2019-04-07T11:52:36.561Z,9.60
2019-04-07T11:55:29.128Z,8.70
2019-04-07T11:58:09.830Z,8.58
2019-04-07T12:00:51.423Z,8.25
2019-04-07T12:03:40.552Z,8.65
2019-04-07T12:06:14.436Z,10.78
2019-04-07T12:08:51.456Z,9.75
2019-04-07T12:11:38.619Z,10.55
2019-04-07T12:14:15.049Z,8.48
2019-04-07T12:16:53.497Z,9.80
2019-04-07T12:19:30.690Z,9.15
2019-04-07T12:22:16.179Z,9.25
2019-04-07T12:25:01.738Z,10.40
2019-04-07T12:27:33.443Z,9.28
2019-04-07T12:30:06.525Z,8.60
2019-04-07T12:32:36.819Z,8.40
2019-04-07T12:35:17.159Z,8.90
2019-04-07T12:37:52.117Z,8.93
2019-04-07T12:40:28.992Z,10.63
2019-04-07T12:43:02.785Z,8.68
2019-04-07T12:45:35.787Z,8.40
2019-04-07T12:48:21.916Z,9.90
2019-04-07T12:51:09.484Z,9.05
2019-04-07T12:53:54.998Z,9.10
2019-04-07T12:56:41.307Z,9.05
2019-04-07T12:59:14.277Z,8.53
2019-04-07T13:02:02.953Z,9.43
2019-04-07T13:04:34.354Z,9.43
2019-04-07T13:07:17.120Z,8.60
2019-04-07T13:09:51.775Z,9.50
2019-04-07T13:12:41.143Z,8.50
2019-04-07T13:15:18.355Z,9.03
2019-04-07T13:17:51.771Z,8.90
2019-04-07T13:20:34.241Z,9.95
2019-04-07T13:23:07.958Z,8.55
2019-04-07T13:25:44.241Z,9.83
2019-04-07T13:28:17.499Z,9.20
2019-04-07T13:30:54.673Z,8.75
2019-04-07T13:33:41.486Z,8.95
2019-04-07T13:36:17.578Z,8.75
2019-04-07T13:38:49.101Z,8.98
2019-04-07T13:41:23.514Z,9.38
2019-04-07T13:44:07.198Z,9.93
2019-04-07T13:46:44.751Z,10.15
2019-04-07T13:49:19.454Z,9.08
2019-04-07T13:52:02.440Z,9.18
2019-04-07T13:54:35.710Z,11.18
2019-04-07T13:57:26.006Z,10.05
2019-04-07T13:59:57.633Z,11.05
2019-04-07T14:02:30.288Z,10.25
2019-04-07T14:05:16.888Z,9.28
2019-04-07T14:07:53.943Z,9.90
2019-04-07T14:10:28.557Z,10.68
2019-04-07T14:13:14.873Z,9.88
2019-04-07T14:15:46.213Z,9.30
2019-04-07T14:18:20.157Z,9.35
2019-04-07T14:21:06.261Z,10.23
2019-04-07T14:23:37.026Z,10.60
2019-04-07T14:26:25.831Z,10.65
2019-04-07T14:28:56.552Z,11.57
2019-04-07T14:31:36.068Z,9.80
2019-04-07T14:34:09.280Z,10.20
2019-04-07T14:36:54.664Z,9.80
2019-04-07T14:39:39.890Z,9.28
2019-04-07T14:42:13.189Z,10.28
2019-04-07T14:45:00.237Z,10.45
2019-04-07T14:47:39.388Z,9.68
2019-04-07T14:50:13.301Z,11.22
2019-04-07T14:52:43.498Z,10.32
2019-04-07T14:55:31.562Z,9.43
2019-04-07T14:58:13.096Z,10.68
2019-04-07T15:00:39.840Z,9.88
2019-04-07T15:03:09.343Z,10.23
2019-04-07T15:05:40.688Z,9.83
2019-04-07T15:08:31.938Z,9.58
2019-04-07T15:11:19.594Z,10.58
2019-04-07T15:13:48.365Z,11.22
2019-04-07T15:16:17.055Z,11.88
2019-04-07T15:18:45.735Z,12.00
2019-04-07T15:21:14.644Z,10.98
2019-04-07T15:23:45.747Z,10.40
2019-04-07T15:26:16.372Z,11.22
2019-04-07T15:28:44.665Z,10.60
2019-04-07T15:31:13.342Z,12.23
2019-04-07T15:33:42.339Z,12.37
2019-04-07T15:36:11.221Z,12.63
2019-04-07T15:38:41.712Z,13.08
2019-04-07T15:41:15.299Z,11.73
2019-04-07T15:43:41.182Z,12.37
2019-04-07T15:46:10.616Z,12.53
2019-04-07T15:48:39.467Z,12.50
2019-04-07T15:51:08.909Z,15.40
2019-04-07T15:53:38.386Z,16.10
2019-04-07T15:56:07.211Z,17.05
2019-04-07T15:58:37.372Z,17.05
2019-04-07T16:01:09.057Z,17.37
2019-04-07T16:03:36.831Z,17.15
2019-04-07T16:06:05.802Z,18.60
2019-04-07T16:08:34.980Z,16.73
2019-04-07T16:11:03.826Z,16.52
2019-04-07T16:13:32.670Z,18.60
2019-04-07T16:16:01.600Z,19.12
2019-04-07T16:18:30.297Z,19.90
2019-04-07T16:21:00.083Z,19.10
2019-04-07T16:23:29.480Z,19.52
2019-04-07T16:25:59.932Z,20.02
2019-04-07T16:28:28.576Z,19.55
2019-04-07T16:30:57.194Z,18.42
2019-04-07T16:33:26.159Z,21.15
2019-04-07T16:35:56.506Z,21.07
2019-04-07T16:38:25.463Z,24.43
2019-04-07T16:40:54.247Z,22.05
2019-04-07T16:43:22.893Z,22.65
2019-04-07T16:45:52.764Z,21.35
2019-04-07T16:48:22.889Z,20.88
2019-04-07T16:50:55.173Z,20.37
2019-04-07T16:53:22.229Z,20.25
2019-04-07T16:55:54.046Z,21.35
2019-04-07T16:58:21.375Z,22.13
2019-04-07T17:00:51.755Z,20.85
2019-04-07T17:03:20.581Z,21.55
2019-04-07T17:05:50.288Z,24.00
2019-04-07T17:08:22.184Z,23.10
2019-04-07T17:10:49.368Z,22.32
2019-04-07T17:13:24.804Z,22.25
2019-04-07T17:15:50.784Z,22.30
2019-04-07T17:18:36.800Z,22.17
2019-04-07T17:21:10.074Z,20.97
2019-04-07T17:23:39.718Z,21.07
2019-04-07T17:26:10.362Z,19.40
2019-04-07T17:28:42.071Z,18.95
2019-04-07T17:31:09.915Z,19.80
2019-04-07T17:33:39.384Z,19.82
2019-04-07T17:36:08.990Z,21.35
2019-04-07T17:38:56.359Z,21.50
2019-04-07T17:41:25.101Z,17.60
2019-04-07T17:43:59.784Z,18.55
2019-04-07T17:46:36.130Z,22.77
2019-04-07T17:49:13.490Z,22.22
2019-04-07T17:51:49.944Z,19.45
2019-04-07T17:54:36.608Z,19.67
2019-04-07T17:57:18.846Z,18.20
2019-04-07T18:00:05.867Z,19.57
2019-04-07T18:02:47.487Z,21.10
2019-04-07T18:05:26.826Z,33.05
2019-04-07T18:08:15.712Z,32.05
2019-04-07T18:10:59.687Z,26.52
2019-04-07T18:13:47.135Z,23.50
2019-04-07T18:16:17.070Z,22.00
2019-04-07T18:18:47.613Z,23.15
2019-04-07T18:21:27.322Z,20.50
2019-04-07T18:24:01.269Z,19.15
2019-04-07T18:26:45.150Z,16.02
2019-04-07T18:29:32.207Z,16.62
2019-04-07T18:32:15.034Z,16.32
2019-04-07T18:35:02.442Z,18.20
2019-04-07T18:37:38.670Z,17.87
2019-04-07T18:40:15.420Z,17.20
2019-04-07T18:42:51.498Z,18.67
2019-04-07T18:45:28.718Z,19.27
2019-04-07T18:48:04.827Z,18.85
2019-04-07T18:50:48.049Z,18.90
2019-04-07T18:53:20.888Z,18.30
2019-04-07T18:56:09.220Z,18.00
2019-04-07T18:58:54.655Z,15.32
2019-04-07T19:01:25.429Z,16.70
2019-04-07T19:03:56.060Z,14.70
2019-04-07T19:06:32.171Z,13.70
2019-04-07T19:09:02.327Z,17.92
2019-04-07T19:11:38.665Z,17.10
2019-04-07T19:14:30.534Z,17.87
2019-04-07T19:16:55.187Z,19.02
2019-04-07T19:19:26.458Z,20.70
2019-04-07T19:22:00.448Z,23.38
2019-04-07T19:24:34.151Z,22.07
2019-04-07T19:27:21.170Z,20.65
2019-04-07T19:29:46.268Z,20.32
2019-04-07T19:32:29.143Z,19.25
2019-04-07T19:35:16.388Z,19.30
2019-04-07T19:38:04.818Z,18.95
2019-04-07T19:40:42.240Z,19.87
2019-04-07T19:43:30.390Z,22.32
2019-04-07T19:46:16.193Z,21.00
2019-04-07T19:48:55.617Z,20.95
2019-04-07T19:51:45.794Z,21.10
2019-04-07T19:54:19.027Z,21.37
2019-04-07T19:56:55.500Z,20.95
2019-04-07T19:59:26.678Z,21.52
2019-04-07T20:02:12.333Z,21.20
2019-04-07T20:04:57.755Z,20.15
2019-04-07T20:07:34.024Z,21.00
2019-04-07T20:10:07.208Z,21.15
2019-04-07T20:12:52.458Z,22.40
2019-04-07T20:15:36.021Z,20.90
2019-04-07T20:18:05.388Z,18.80
2019-04-07T20:20:50.682Z,20.90
2019-04-07T20:23:29.582Z,20.60
2019-04-07T20:26:04.653Z,22.67
2019-04-07T20:28:45.089Z,22.13
2019-04-07T20:31:19.326Z,21.62
2019-04-07T20:33:47.520Z,20.85
2019-04-07T20:36:24.998Z,23.27
2019-04-07T20:39:07.547Z,20.75
2019-04-07T20:41:38.041Z,20.85
2019-04-07T20:44:30.771Z,22.25
2019-04-07T20:47:13.348Z,23.57
2019-04-07T20:49:44.757Z,27.30
2019-04-07T20:52:16.458Z,25.50
2019-04-07T20:54:56.329Z,26.23
2019-04-07T20:57:39.078Z,25.37
2019-04-07T21:00:28.761Z,27.55
2019-04-07T21:03:21.480Z,26.75
2019-04-07T21:05:56.380Z,28.10
2019-04-07T21:08:30.191Z,25.43
2019-04-07T21:11:17.242Z,31.75
2019-04-07T21:13:59.486Z,29.92
2019-04-07T21:16:32.832Z,29.75
2019-04-07T21:19:18.836Z,25.57
2019-04-07T21:21:58.163Z,23.27
2019-04-07T21:24:40.455Z,22.67
2019-04-07T21:27:27.150Z,22.87
2019-04-07T21:30:07.120Z,24.07
2019-04-07T21:32:37.320Z,23.75
2019-04-07T21:35:08.670Z,24.70
2019-04-07T21:37:56.254Z,25.25
2019-04-07T21:40:26.647Z,25.35
2019-04-07T21:43:11.852Z,24.75
2019-04-07T21:45:48.985Z,26.02
2019-04-07T21:48:33.279Z,25.70
2019-04-07T21:51:21.946Z,24.75
2019-04-07T21:53:53.061Z,23.30
2019-04-07T21:56:32.793Z,23.42
2019-04-07T21:59:20.087Z,22.62
2019-04-07T22:01:50.848Z,23.20
2019-04-07T22:04:26.425Z,24.12
2019-04-07T22:07:08.923Z,23.65
2019-04-07T22:09:39.625Z,23.38
2019-04-07T22:12:08.539Z,23.73
2019-04-07T22:14:40.527Z,22.75
2019-04-07T22:17:07.994Z,24.02
2019-04-07T22:19:36.915Z,25.80
2019-04-07T22:22:05.556Z,44.40
2019-04-07T22:24:35.956Z,37.13
2019-04-07T22:27:05.651Z,34.40
2019-04-07T22:29:34.978Z,36.83
2019-04-07T22:32:05.304Z,44.42
2019-04-07T22:34:34.271Z,32.33
2019-04-07T22:37:02.892Z,27.60
2019-04-07T22:39:33.353Z,23.98
2019-04-07T22:42:02.214Z,22.60
2019-04-07T22:44:31.449Z,22.75
2019-04-07T22:47:00.100Z,22.10
2019-04-07T22:49:32.205Z,22.27
2019-04-07T22:52:01.333Z,20.77
2019-04-07T22:54:31.217Z,22.45
2019-04-07T22:57:00.698Z,21.90
2019-04-07T22:59:30.112Z,20.85
2019-04-07T23:01:59.848Z,20.82
2019-04-07T23:04:28.713Z,20.45
2019-04-07T23:06:57.302Z,20.80
2019-04-07T23:09:25.918Z,20.48
2019-04-07T23:11:54.586Z,20.65
2019-04-07T23:14:23.570Z,21.23
2019-04-07T23:16:52.144Z,20.15
2019-04-07T23:19:20.838Z,21.17
2019-04-07T23:21:49.672Z,20.62
2019-04-07T23:24:19.193Z,19.42
2019-04-07T23:26:48.801Z,21.07
2019-04-07T23:29:17.748Z,20.40
2019-04-07T23:31:47.167Z,19.85
2019-04-07T23:34:15.822Z,20.95
2019-04-07T23:36:45.700Z,21.77
2019-04-07T23:39:15.268Z,20.48
2019-04-07T23:41:44.103Z,19.57
2019-04-07T23:44:12.987Z,19.82
2019-04-07T23:46:43.530Z,19.65
2019-04-07T23:49:13.085Z,20.15
2019-04-07T23:51:41.847Z,20.10
2019-04-07T23:54:11.876Z,20.92
2019-04-07T23:56:41.787Z,19.55
2019-04-07T23:59:11.094Z,19.92
